sensor_id;sensor_type;location;lat;lon;timestamp;P1;durP1;ratioP1;P2;durP2;ratioP2
3022;SDS011;1521;53.584;9.938;2023-04-04T00:01:01;5.57;;;4.10;;
3022;SDS011;1521;53.584;9.938;2023-04-04T00:03:26;5.70;;;4.20;;
3022;SDS011;1521;53.584;9.938;2023-04-04T00:05:52;7.03;;;3.60;;
3022;SDS011;1521;53.584;9.938;2023-04-04T00:08:17;8.13;;;3.80;;
3022;SDS011;1521;53.584;9.938;2023-04-04T00:10:43;6.97;;;4.37;;
3022;SDS011;1521;53.584;9.938;2023-04-04T00:13:09;8.27;;;3.67;;
3022;SDS011;1521;53.584;9.938;2023-04-04T00:15:35;7.77;;;4.03;;
3022;SDS011;1521;53.584;9.938;2023-04-04T00:18:01;9.87;;;3.60;;
3022;SDS011;1521;53.584;9.938;2023-04-04T00:20:28;7.37;;;3.87;;
3022;SDS011;1521;53.584;9.938;2023-04-04T00:22:56;8.03;;;3.93;;
3022;SDS011;1521;53.584;9.938;2023-04-04T00:25:22;6.40;;;3.50;;
3022;SDS011;1521;53.584;9.938;2023-04-04T00:27:48;8.93;;;4.00;;
3022;SDS011;1521;53.584;9.938;2023-04-04T00:30:14;7.60;;;3.63;;
3022;SDS011;1521;53.584;9.938;2023-04-04T00:32:39;9.17;;;3.90;;
3022;SDS011;1521;53.584;9.938;2023-04-04T00:35:05;6.57;;;2.87;;
3022;SDS011;1521;53.584;9.938;2023-04-04T00:37:31;6.67;;;3.47;;
3022;SDS011;1521;53.584;9.938;2023-04-04T00:39:57;10.17;;;3.87;;
3022;SDS011;1521;53.584;9.938;2023-04-04T00:42:23;7.23;;;3.80;;
3022;SDS011;1521;53.584;9.938;2023-04-04T00:44:50;7.13;;;3.80;;
3022;SDS011;1521;53.584;9.938;2023-04-04T00:47:16;7.60;;;3.60;;
3022;SDS011;1521;53.584;9.938;2023-04-04T00:49:43;11.73;;;3.87;;
3022;SDS011;1521;53.584;9.938;2023-04-04T00:52:10;6.63;;;3.70;;
3022;SDS011;1521;53.584;9.938;2023-04-04T00:54:35;7.33;;;3.60;;
3022;SDS011;1521;53.584;9.938;2023-04-04T00:57:01;5.47;;;3.37;;
3022;SDS011;1521;53.584;9.938;2023-04-04T00:59:30;7.87;;;3.50;;
3022;SDS011;1521;53.584;9.938;2023-04-04T01:01:56;6.23;;;3.93;;
3022;SDS011;1521;53.584;9.938;2023-04-04T01:04:22;6.70;;;3.80;;
3022;SDS011;1521;53.584;9.938;2023-04-04T01:06:47;8.23;;;3.80;;
3022;SDS011;1521;53.584;9.938;2023-04-04T01:09:14;6.20;;;4.27;;
3022;SDS011;1521;53.584;9.938;2023-04-04T01:11:40;6.40;;;3.57;;
3022;SDS011;1521;53.584;9.938;2023-04-04T01:14:07;6.33;;;3.97;;
3022;SDS011;1521;53.584;9.938;2023-04-04T01:16:33;6.03;;;3.40;;
3022;SDS011;1521;53.584;9.938;2023-04-04T01:19:00;6.47;;;3.23;;
3022;SDS011;1521;53.584;9.938;2023-04-04T01:21:26;7.50;;;3.70;;
3022;SDS011;1521;53.584;9.938;2023-04-04T01:26:29;5.90;;;3.03;;
3022;SDS011;1521;53.584;9.938;2023-04-04T01:28:55;6.40;;;3.63;;
3022;SDS011;1521;53.584;9.938;2023-04-04T01:31:34;13.30;;;3.60;;
3022;SDS011;1521;53.584;9.938;2023-04-04T01:34:10;8.73;;;3.90;;
3022;SDS011;1521;53.584;9.938;2023-04-04T01:37:10;7.13;;;3.77;;
3022;SDS011;1521;53.584;9.938;2023-04-04T01:40:18;9.37;;;4.00;;
3022;SDS011;1521;53.584;9.938;2023-04-04T01:42:46;9.37;;;3.83;;
3022;SDS011;1521;53.584;9.938;2023-04-04T01:45:13;7.07;;;3.47;;
3022;SDS011;1521;53.584;9.938;2023-04-04T01:47:39;9.50;;;3.60;;
3022;SDS011;1521;53.584;9.938;2023-04-04T01:50:06;4.20;;;3.30;;
3022;SDS011;1521;53.584;9.938;2023-04-04T01:52:33;5.27;;;3.83;;
3022;SDS011;1521;53.584;9.938;2023-04-04T01:54:59;6.93;;;4.07;;
3022;SDS011;1521;53.584;9.938;2023-04-04T01:57:25;5.33;;;3.40;;
3022;SDS011;1521;53.584;9.938;2023-04-04T01:59:51;6.30;;;3.43;;
3022;SDS011;1521;53.584;9.938;2023-04-04T02:02:16;4.77;;;3.17;;
3022;SDS011;1521;53.584;9.938;2023-04-04T02:04:42;8.10;;;4.07;;
3022;SDS011;1521;53.584;9.938;2023-04-04T02:07:08;8.43;;;3.07;;
3022;SDS011;1521;53.584;9.938;2023-04-04T02:09:33;7.27;;;3.80;;
3022;SDS011;1521;53.584;9.938;2023-04-04T02:11:59;4.33;;;3.27;;
3022;SDS011;1521;53.584;9.938;2023-04-04T02:14:25;6.63;;;3.83;;
3022;SDS011;1521;53.584;9.938;2023-04-04T02:16:51;7.53;;;3.43;;
3022;SDS011;1521;53.584;9.938;2023-04-04T02:19:16;6.80;;;3.80;;
3022;SDS011;1521;53.584;9.938;2023-04-04T02:21:42;4.50;;;3.07;;
3022;SDS011;1521;53.584;9.938;2023-04-04T02:24:08;5.93;;;3.97;;
3022;SDS011;1521;53.584;9.938;2023-04-04T02:26:34;9.03;;;3.60;;
3022;SDS011;1521;53.584;9.938;2023-04-04T02:28:59;14.93;;;3.77;;
3022;SDS011;1521;53.584;9.938;2023-04-04T02:31:25;6.53;;;3.50;;
3022;SDS011;1521;53.584;9.938;2023-04-04T02:33:51;7.40;;;3.20;;
3022;SDS011;1521;53.584;9.938;2023-04-04T02:36:16;5.40;;;3.50;;
3022;SDS011;1521;53.584;9.938;2023-04-04T02:38:42;5.50;;;3.80;;
3022;SDS011;1521;53.584;9.938;2023-04-04T02:41:07;5.10;;;3.20;;
3022;SDS011;1521;53.584;9.938;2023-04-04T02:43:33;11.37;;;3.20;;
3022;SDS011;1521;53.584;9.938;2023-04-04T02:45:58;5.10;;;3.33;;
3022;SDS011;1521;53.584;9.938;2023-04-04T02:48:24;5.40;;;3.30;;
3022;SDS011;1521;53.584;9.938;2023-04-04T02:50:51;8.27;;;3.50;;
3022;SDS011;1521;53.584;9.938;2023-04-04T02:53:16;4.40;;;2.83;;
3022;SDS011;1521;53.584;9.938;2023-04-04T02:55:42;7.63;;;3.77;;
3022;SDS011;1521;53.584;9.938;2023-04-04T02:58:08;5.67;;;2.83;;
3022;SDS011;1521;53.584;9.938;2023-04-04T03:00:33;6.90;;;4.30;;
3022;SDS011;1521;53.584;9.938;2023-04-04T03:02:59;7.60;;;3.30;;
3022;SDS011;1521;53.584;9.938;2023-04-04T03:05:25;12.50;;;3.40;;
3022;SDS011;1521;53.584;9.938;2023-04-04T03:07:54;8.00;;;4.13;;
3022;SDS011;1521;53.584;9.938;2023-04-04T03:10:21;7.80;;;4.20;;
3022;SDS011;1521;53.584;9.938;2023-04-04T03:12:51;8.13;;;3.90;;
3022;SDS011;1521;53.584;9.938;2023-04-04T03:15:17;7.03;;;3.83;;
3022;SDS011;1521;53.584;9.938;2023-04-04T03:17:43;7.50;;;4.00;;
3022;SDS011;1521;53.584;9.938;2023-04-04T03:20:10;6.83;;;3.80;;
3022;SDS011;1521;53.584;9.938;2023-04-04T03:22:39;6.37;;;3.70;;
3022;SDS011;1521;53.584;9.938;2023-04-04T03:25:05;7.13;;;3.00;;
3022;SDS011;1521;53.584;9.938;2023-04-04T03:27:31;6.77;;;3.87;;
3022;SDS011;1521;53.584;9.938;2023-04-04T03:29:57;6.60;;;3.63;;
3022;SDS011;1521;53.584;9.938;2023-04-04T03:32:23;6.73;;;3.90;;
3022;SDS011;1521;53.584;9.938;2023-04-04T03:34:49;4.77;;;3.30;;
3022;SDS011;1521;53.584;9.938;2023-04-04T03:37:16;8.60;;;3.93;;
3022;SDS011;1521;53.584;9.938;2023-04-04T03:39:42;8.87;;;4.23;;
3022;SDS011;1521;53.584;9.938;2023-04-04T03:42:07;7.53;;;4.00;;
3022;SDS011;1521;53.584;9.938;2023-04-04T03:44:33;10.10;;;3.80;;
3022;SDS011;1521;53.584;9.938;2023-04-04T03:46:58;8.47;;;3.30;;
3022;SDS011;1521;53.584;9.938;2023-04-04T03:49:24;9.90;;;4.20;;
3022;SDS011;1521;53.584;9.938;2023-04-04T03:51:50;5.67;;;3.70;;
3022;SDS011;1521;53.584;9.938;2023-04-04T03:54:15;8.00;;;3.70;;
3022;SDS011;1521;53.584;9.938;2023-04-04T03:56:41;6.47;;;3.60;;
3022;SDS011;1521;53.584;9.938;2023-04-04T03:59:07;8.73;;;4.37;;
3022;SDS011;1521;53.584;9.938;2023-04-04T04:01:33;9.33;;;4.00;;
3022;SDS011;1521;53.584;9.938;2023-04-04T04:03:59;6.70;;;3.50;;
3022;SDS011;1521;53.584;9.938;2023-04-04T04:06:27;7.00;;;3.57;;
3022;SDS011;1521;53.584;9.938;2023-04-04T04:08:53;5.70;;;3.77;;
3022;SDS011;1521;53.584;9.938;2023-04-04T04:11:20;8.27;;;4.00;;
3022;SDS011;1521;53.584;9.938;2023-04-04T04:13:46;5.33;;;3.90;;
3022;SDS011;1521;53.584;9.938;2023-04-04T04:16:11;7.73;;;4.30;;
3022;SDS011;1521;53.584;9.938;2023-04-04T04:18:37;9.37;;;3.67;;
3022;SDS011;1521;53.584;9.938;2023-04-04T04:21:03;3.90;;;3.20;;
3022;SDS011;1521;53.584;9.938;2023-04-04T04:23:29;11.83;;;4.50;;
3022;SDS011;1521;53.584;9.938;2023-04-04T04:25:55;4.50;;;3.57;;
3022;SDS011;1521;53.584;9.938;2023-04-04T04:28:20;6.77;;;3.60;;
3022;SDS011;1521;53.584;9.938;2023-04-04T04:30:48;6.77;;;4.03;;
3022;SDS011;1521;53.584;9.938;2023-04-04T04:33:15;7.17;;;3.97;;
3022;SDS011;1521;53.584;9.938;2023-04-04T04:35:40;9.13;;;3.57;;
3022;SDS011;1521;53.584;9.938;2023-04-04T04:38:06;7.30;;;3.63;;
3022;SDS011;1521;53.584;9.938;2023-04-04T04:40:32;4.40;;;3.40;;
3022;SDS011;1521;53.584;9.938;2023-04-04T04:42:58;9.43;;;3.63;;
3022;SDS011;1521;53.584;9.938;2023-04-04T04:45:24;6.37;;;3.87;;
3022;SDS011;1521;53.584;9.938;2023-04-04T04:47:49;10.57;;;4.10;;
3022;SDS011;1521;53.584;9.938;2023-04-04T04:50:15;7.90;;;4.00;;
3022;SDS011;1521;53.584;9.938;2023-04-04T04:52:41;5.37;;;3.03;;
3022;SDS011;1521;53.584;9.938;2023-04-04T04:55:08;7.17;;;3.77;;
3022;SDS011;1521;53.584;9.938;2023-04-04T04:57:34;10.10;;;3.70;;
3022;SDS011;1521;53.584;9.938;2023-04-04T05:00:00;5.83;;;3.40;;
3022;SDS011;1521;53.584;9.938;2023-04-04T05:02:27;5.07;;;3.53;;
3022;SDS011;1521;53.584;9.938;2023-04-04T05:04:53;9.43;;;3.70;;
3022;SDS011;1521;53.584;9.938;2023-04-04T05:07:18;9.10;;;4.30;;
3022;SDS011;1521;53.584;9.938;2023-04-04T05:09:44;6.50;;;4.00;;
3022;SDS011;1521;53.584;9.938;2023-04-04T05:12:10;7.80;;;4.13;;
3022;SDS011;1521;53.584;9.938;2023-04-04T05:14:35;7.83;;;3.33;;
3022;SDS011;1521;53.584;9.938;2023-04-04T05:17:01;9.07;;;3.83;;
3022;SDS011;1521;53.584;9.938;2023-04-04T05:19:27;8.50;;;4.00;;
3022;SDS011;1521;53.584;9.938;2023-04-04T05:21:53;7.20;;;4.27;;
3022;SDS011;1521;53.584;9.938;2023-04-04T05:24:18;7.60;;;3.90;;
3022;SDS011;1521;53.584;9.938;2023-04-04T05:26:44;6.47;;;3.97;;
3022;SDS011;1521;53.584;9.938;2023-04-04T05:29:11;13.97;;;4.40;;
3022;SDS011;1521;53.584;9.938;2023-04-04T05:31:36;11.43;;;3.77;;
3022;SDS011;1521;53.584;9.938;2023-04-04T05:34:02;9.47;;;4.10;;
3022;SDS011;1521;53.584;9.938;2023-04-04T05:36:32;9.47;;;4.10;;
3022;SDS011;1521;53.584;9.938;2023-04-04T05:39:01;7.77;;;4.40;;
3022;SDS011;1521;53.584;9.938;2023-04-04T05:41:31;8.07;;;4.30;;
3022;SDS011;1521;53.584;9.938;2023-04-04T05:43:57;8.80;;;4.83;;
3022;SDS011;1521;53.584;9.938;2023-04-04T05:46:23;6.73;;;4.43;;
3022;SDS011;1521;53.584;9.938;2023-04-04T05:48:50;12.80;;;4.20;;
3022;SDS011;1521;53.584;9.938;2023-04-04T05:51:16;12.40;;;4.63;;
3022;SDS011;1521;53.584;9.938;2023-04-04T05:53:42;8.83;;;5.13;;
3022;SDS011;1521;53.584;9.938;2023-04-04T05:56:09;6.70;;;4.90;;
3022;SDS011;1521;53.584;9.938;2023-04-04T05:58:36;8.17;;;4.60;;
3022;SDS011;1521;53.584;9.938;2023-04-04T06:01:05;6.20;;;4.10;;
3022;SDS011;1521;53.584;9.938;2023-04-04T06:03:32;13.57;;;5.83;;
3022;SDS011;1521;53.584;9.938;2023-04-04T06:05:58;8.63;;;4.57;;
3022;SDS011;1521;53.584;9.938;2023-04-04T06:08:24;7.83;;;5.10;;
3022;SDS011;1521;53.584;9.938;2023-04-04T06:10:49;12.90;;;4.90;;
3022;SDS011;1521;53.584;9.938;2023-04-04T06:13:15;6.67;;;3.90;;
3022;SDS011;1521;53.584;9.938;2023-04-04T06:15:41;7.20;;;4.07;;
3022;SDS011;1521;53.584;9.938;2023-04-04T06:18:06;8.37;;;4.70;;
3022;SDS011;1521;53.584;9.938;2023-04-04T06:20:32;9.97;;;4.80;;
3022;SDS011;1521;53.584;9.938;2023-04-04T06:22:57;4.87;;;3.73;;
3022;SDS011;1521;53.584;9.938;2023-04-04T06:25:26;5.47;;;3.40;;
3022;SDS011;1521;53.584;9.938;2023-04-04T06:27:51;8.60;;;3.50;;
3022;SDS011;1521;53.584;9.938;2023-04-04T06:30:17;10.30;;;3.90;;
3022;SDS011;1521;53.584;9.938;2023-04-04T06:32:42;4.40;;;3.27;;
3022;SDS011;1521;53.584;9.938;2023-04-04T06:35:09;8.63;;;3.83;;
3022;SDS011;1521;53.584;9.938;2023-04-04T06:37:34;6.93;;;3.70;;
3022;SDS011;1521;53.584;9.938;2023-04-04T06:40:00;7.80;;;3.50;;
3022;SDS011;1521;53.584;9.938;2023-04-04T06:42:25;8.70;;;3.97;;
3022;SDS011;1521;53.584;9.938;2023-04-04T06:44:52;8.63;;;4.37;;
3022;SDS011;1521;53.584;9.938;2023-04-04T06:47:17;11.90;;;4.27;;
3022;SDS011;1521;53.584;9.938;2023-04-04T06:49:43;7.83;;;3.77;;
3022;SDS011;1521;53.584;9.938;2023-04-04T06:52:08;7.80;;;3.70;;
3022;SDS011;1521;53.584;9.938;2023-04-04T06:54:34;10.77;;;3.83;;
3022;SDS011;1521;53.584;9.938;2023-04-04T06:57:00;9.27;;;3.43;;
3022;SDS011;1521;53.584;9.938;2023-04-04T06:59:25;14.50;;;3.83;;
3022;SDS011;1521;53.584;9.938;2023-04-04T07:01:51;5.20;;;3.17;;
3022;SDS011;1521;53.584;9.938;2023-04-04T07:04:17;5.00;;;3.33;;
3022;SDS011;1521;53.584;9.938;2023-04-04T07:06:44;7.53;;;3.80;;
3022;SDS011;1521;53.584;9.938;2023-04-04T07:09:09;8.37;;;3.40;;
3022;SDS011;1521;53.584;9.938;2023-04-04T07:11:36;4.30;;;2.77;;
3022;SDS011;1521;53.584;9.938;2023-04-04T07:14:02;11.63;;;2.40;;
3022;SDS011;1521;53.584;9.938;2023-04-04T07:16:28;5.03;;;2.57;;
3022;SDS011;1521;53.584;9.938;2023-04-04T07:18:53;5.63;;;3.10;;
3022;SDS011;1521;53.584;9.938;2023-04-04T07:21:19;5.60;;;2.00;;
3022;SDS011;1521;53.584;9.938;2023-04-04T07:23:45;6.10;;;3.17;;
3022;SDS011;1521;53.584;9.938;2023-04-04T07:26:11;4.80;;;2.97;;
3022;SDS011;1521;53.584;9.938;2023-04-04T07:28:36;6.93;;;3.30;;
3022;SDS011;1521;53.584;9.938;2023-04-04T07:31:02;6.50;;;3.03;;
3022;SDS011;1521;53.584;9.938;2023-04-04T07:33:27;6.17;;;2.47;;
3022;SDS011;1521;53.584;9.938;2023-04-04T07:35:53;4.03;;;2.13;;
3022;SDS011;1521;53.584;9.938;2023-04-04T07:38:19;7.40;;;2.60;;
3022;SDS011;1521;53.584;9.938;2023-04-04T07:40:44;5.03;;;2.93;;
3022;SDS011;1521;53.584;9.938;2023-04-04T07:43:12;4.80;;;2.20;;
3022;SDS011;1521;53.584;9.938;2023-04-04T07:45:38;5.30;;;2.77;;
3022;SDS011;1521;53.584;9.938;2023-04-04T07:48:03;11.83;;;2.30;;
3022;SDS011;1521;53.584;9.938;2023-04-04T07:50:29;4.60;;;2.30;;
3022;SDS011;1521;53.584;9.938;2023-04-04T07:52:55;6.40;;;2.37;;
3022;SDS011;1521;53.584;9.938;2023-04-04T07:55:22;4.10;;;1.97;;
3022;SDS011;1521;53.584;9.938;2023-04-04T07:57:51;9.63;;;2.13;;
3022;SDS011;1521;53.584;9.938;2023-04-04T08:00:17;5.90;;;2.33;;
3022;SDS011;1521;53.584;9.938;2023-04-04T08:02:45;3.57;;;2.13;;
3022;SDS011;1521;53.584;9.938;2023-04-04T08:05:16;5.80;;;1.93;;
3022;SDS011;1521;53.584;9.938;2023-04-04T08:07:42;1.90;;;1.30;;
3022;SDS011;1521;53.584;9.938;2023-04-04T08:10:07;3.87;;;1.90;;
3022;SDS011;1521;53.584;9.938;2023-04-04T08:12:33;11.90;;;1.93;;
3022;SDS011;1521;53.584;9.938;2023-04-04T08:14:59;4.23;;;1.90;;
3022;SDS011;1521;53.584;9.938;2023-04-04T08:17:25;4.40;;;2.17;;
3022;SDS011;1521;53.584;9.938;2023-04-04T08:19:52;3.60;;;1.90;;
3022;SDS011;1521;53.584;9.938;2023-04-04T08:22:17;4.60;;;2.20;;
3022;SDS011;1521;53.584;9.938;2023-04-04T08:24:44;4.37;;;2.23;;
3022;SDS011;1521;53.584;9.938;2023-04-04T08:27:10;3.53;;;2.63;;
3022;SDS011;1521;53.584;9.938;2023-04-04T08:29:36;8.53;;;2.30;;
3022;SDS011;1521;53.584;9.938;2023-04-04T08:32:02;10.33;;;2.03;;
3022;SDS011;1521;53.584;9.938;2023-04-04T08:34:27;8.13;;;2.40;;
3022;SDS011;1521;53.584;9.938;2023-04-04T08:36:53;6.70;;;2.60;;
3022;SDS011;1521;53.584;9.938;2023-04-04T08:39:19;5.23;;;2.33;;
3022;SDS011;1521;53.584;9.938;2023-04-04T08:41:44;4.47;;;2.10;;
3022;SDS011;1521;53.584;9.938;2023-04-04T08:44:19;4.20;;;2.53;;
3022;SDS011;1521;53.584;9.938;2023-04-04T08:46:47;5.35;;;2.30;;
3022;SDS011;1521;53.584;9.938;2023-04-04T08:49:14;7.53;;;2.73;;
3022;SDS011;1521;53.584;9.938;2023-04-04T08:51:42;5.47;;;2.30;;
3022;SDS011;1521;53.584;9.938;2023-04-04T08:54:10;5.57;;;2.93;;
3022;SDS011;1521;53.584;9.938;2023-04-04T08:56:37;4.83;;;2.40;;
3022;SDS011;1521;53.584;9.938;2023-04-04T08:59:02;6.03;;;2.60;;
3022;SDS011;1521;53.584;9.938;2023-04-04T09:01:28;6.70;;;2.50;;
3022;SDS011;1521;53.584;9.938;2023-04-04T09:03:57;2.77;;;2.53;;
3022;SDS011;1521;53.584;9.938;2023-04-04T09:06:24;4.80;;;2.40;;
3022;SDS011;1521;53.584;9.938;2023-04-04T09:08:50;5.60;;;2.77;;
3022;SDS011;1521;53.584;9.938;2023-04-04T09:11:18;4.80;;;2.60;;
3022;SDS011;1521;53.584;9.938;2023-04-04T09:13:46;5.93;;;3.00;;
3022;SDS011;1521;53.584;9.938;2023-04-04T09:16:14;7.13;;;3.30;;
3022;SDS011;1521;53.584;9.938;2023-04-04T09:18:41;5.70;;;2.70;;
3022;SDS011;1521;53.584;9.938;2023-04-04T09:21:10;7.70;;;2.83;;
3022;SDS011;1521;53.584;9.938;2023-04-04T09:23:37;9.80;;;2.63;;
3022;SDS011;1521;53.584;9.938;2023-04-04T09:26:02;5.60;;;2.60;;
3022;SDS011;1521;53.584;9.938;2023-04-04T09:28:28;5.63;;;2.47;;
3022;SDS011;1521;53.584;9.938;2023-04-04T09:30:54;3.60;;;2.13;;
3022;SDS011;1521;53.584;9.938;2023-04-04T09:33:20;4.23;;;2.30;;
3022;SDS011;1521;53.584;9.938;2023-04-04T09:35:48;3.30;;;2.20;;
3022;SDS011;1521;53.584;9.938;2023-04-04T09:38:27;6.00;;;2.70;;
3022;SDS011;1521;53.584;9.938;2023-04-04T09:40:55;4.03;;;2.20;;
3022;SDS011;1521;53.584;9.938;2023-04-04T09:43:24;6.23;;;2.30;;
3022;SDS011;1521;53.584;9.938;2023-04-04T09:45:50;4.70;;;2.37;;
3022;SDS011;1521;53.584;9.938;2023-04-04T09:48:25;4.13;;;2.37;;
3022;SDS011;1521;53.584;9.938;2023-04-04T09:50:56;4.93;;;2.30;;
3022;SDS011;1521;53.584;9.938;2023-04-04T09:53:23;6.03;;;2.50;;
3022;SDS011;1521;53.584;9.938;2023-04-04T09:55:49;3.60;;;2.33;;
3022;SDS011;1521;53.584;9.938;2023-04-04T09:58:17;4.40;;;2.30;;
3022;SDS011;1521;53.584;9.938;2023-04-04T10:00:47;4.50;;;2.70;;
3022;SDS011;1521;53.584;9.938;2023-04-04T10:03:16;7.00;;;2.20;;
3022;SDS011;1521;53.584;9.938;2023-04-04T10:05:46;6.50;;;2.40;;
3022;SDS011;1521;53.584;9.938;2023-04-04T10:08:15;3.80;;;1.70;;
3022;SDS011;1521;53.584;9.938;2023-04-04T10:13:21;4.73;;;2.10;;
3022;SDS011;1521;53.584;9.938;2023-04-04T10:15:47;5.60;;;2.60;;
3022;SDS011;1521;53.584;9.938;2023-04-04T10:18:13;6.10;;;2.30;;
3022;SDS011;1521;53.584;9.938;2023-04-04T10:20:41;7.10;;;2.00;;
3022;SDS011;1521;53.584;9.938;2023-04-04T10:23:07;7.10;;;2.40;;
3022;SDS011;1521;53.584;9.938;2023-04-04T10:25:33;7.60;;;2.80;;
3022;SDS011;1521;53.584;9.938;2023-04-04T10:28:01;5.23;;;2.30;;
3022;SDS011;1521;53.584;9.938;2023-04-04T10:30:26;5.10;;;2.40;;
3022;SDS011;1521;53.584;9.938;2023-04-04T10:32:55;2.63;;;2.10;;
3022;SDS011;1521;53.584;9.938;2023-04-04T10:35:26;2.77;;;1.93;;
3022;SDS011;1521;53.584;9.938;2023-04-04T10:38:01;11.30;;;2.40;;
3022;SDS011;1521;53.584;9.938;2023-04-04T10:40:32;3.53;;;2.00;;
3022;SDS011;1521;53.584;9.938;2023-04-04T10:43:02;1.97;;;1.83;;
3022;SDS011;1521;53.584;9.938;2023-04-04T10:45:30;2.40;;;2.10;;
3022;SDS011;1521;53.584;9.938;2023-04-04T10:47:57;2.00;;;1.60;;
3022;SDS011;1521;53.584;9.938;2023-04-04T10:50:23;3.47;;;2.20;;
3022;SDS011;1521;53.584;9.938;2023-04-04T10:52:50;4.73;;;2.10;;
3022;SDS011;1521;53.584;9.938;2023-04-04T10:55:16;3.47;;;1.90;;
3022;SDS011;1521;53.584;9.938;2023-04-04T10:57:48;2.43;;;1.70;;
3022;SDS011;1521;53.584;9.938;2023-04-04T11:00:16;1.87;;;1.50;;
3022;SDS011;1521;53.584;9.938;2023-04-04T11:05:21;1.90;;;1.63;;
3022;SDS011;1521;53.584;9.938;2023-04-04T11:07:47;4.70;;;1.80;;
3022;SDS011;1521;53.584;9.938;2023-04-04T11:10:29;2.00;;;1.70;;
3022;SDS011;1521;53.584;9.938;2023-04-04T11:13:00;5.07;;;2.10;;
3022;SDS011;1521;53.584;9.938;2023-04-04T11:21:07;3.03;;;1.90;;
3022;SDS011;1521;53.584;9.938;2023-04-04T11:26:12;4.33;;;1.80;;
3022;SDS011;1521;53.584;9.938;2023-04-04T11:39:04;3.00;;;1.93;;
3022;SDS011;1521;53.584;9.938;2023-04-04T11:44:11;3.37;;;1.80;;
3022;SDS011;1521;53.584;9.938;2023-04-04T11:46:37;9.43;;;2.00;;
3022;SDS011;1521;53.584;9.938;2023-04-04T11:49:03;2.97;;;1.80;;
3022;SDS011;1521;53.584;9.938;2023-04-04T11:51:30;2.63;;;1.80;;
3022;SDS011;1521;53.584;9.938;2023-04-04T11:53:56;5.53;;;2.03;;
3022;SDS011;1521;53.584;9.938;2023-04-04T11:56:22;4.33;;;1.90;;
3022;SDS011;1521;53.584;9.938;2023-04-04T11:58:49;2.93;;;1.93;;
3022;SDS011;1521;53.584;9.938;2023-04-04T12:01:15;3.10;;;1.57;;
3022;SDS011;1521;53.584;9.938;2023-04-04T12:03:42;3.08;;;1.30;;
3022;SDS011;1521;53.584;9.938;2023-04-04T12:06:09;4.70;;;1.90;;
3022;SDS011;1521;53.584;9.938;2023-04-04T12:08:35;3.10;;;1.67;;
3022;SDS011;1521;53.584;9.938;2023-04-04T12:11:07;5.23;;;1.57;;
3022;SDS011;1521;53.584;9.938;2023-04-04T12:13:42;2.13;;;1.37;;
3022;SDS011;1521;53.584;9.938;2023-04-04T12:16:12;2.70;;;1.50;;
3022;SDS011;1521;53.584;9.938;2023-04-04T12:18:38;5.57;;;1.47;;
3022;SDS011;1521;53.584;9.938;2023-04-04T12:21:05;1.87;;;1.70;;
3022;SDS011;1521;53.584;9.938;2023-04-04T12:23:32;3.27;;;1.60;;
3022;SDS011;1521;53.584;9.938;2023-04-04T12:25:58;3.07;;;1.47;;
3022;SDS011;1521;53.584;9.938;2023-04-04T12:28:27;3.23;;;1.63;;
3022;SDS011;1521;53.584;9.938;2023-04-04T12:30:54;5.73;;;1.60;;
3022;SDS011;1521;53.584;9.938;2023-04-04T12:33:20;2.17;;;1.70;;
3022;SDS011;1521;53.584;9.938;2023-04-04T12:35:49;2.47;;;1.90;;
3022;SDS011;1521;53.584;9.938;2023-04-04T12:38:18;5.93;;;4.17;;
3022;SDS011;1521;53.584;9.938;2023-04-04T12:40:44;4.13;;;2.37;;
3022;SDS011;1521;53.584;9.938;2023-04-04T12:43:15;2.27;;;1.60;;
3022;SDS011;1521;53.584;9.938;2023-04-04T12:45:42;2.87;;;1.70;;
3022;SDS011;1521;53.584;9.938;2023-04-04T12:48:09;3.90;;;1.73;;
3022;SDS011;1521;53.584;9.938;2023-04-04T12:50:49;4.60;;;1.80;;
3022;SDS011;1521;53.584;9.938;2023-04-04T12:53:18;2.90;;;1.43;;
3022;SDS011;1521;53.584;9.938;2023-04-04T12:55:45;2.80;;;1.13;;
3022;SDS011;1521;53.584;9.938;2023-04-04T12:58:16;3.43;;;1.70;;
3022;SDS011;1521;53.584;9.938;2023-04-04T13:00:44;6.50;;;1.97;;
3022;SDS011;1521;53.584;9.938;2023-04-04T13:03:11;3.05;;;1.52;;
3022;SDS011;1521;53.584;9.938;2023-04-04T13:05:40;2.30;;;1.40;;
3022;SDS011;1521;53.584;9.938;2023-04-04T13:08:07;3.57;;;1.60;;
3022;SDS011;1521;53.584;9.938;2023-04-04T13:15:55;2.27;;;1.43;;
3022;SDS011;1521;53.584;9.938;2023-04-04T13:18:22;1.63;;;1.30;;
3022;SDS011;1521;53.584;9.938;2023-04-04T13:20:50;2.13;;;1.40;;
3022;SDS011;1521;53.584;9.938;2023-04-04T13:23:18;4.33;;;2.23;;
3022;SDS011;1521;53.584;9.938;2023-04-04T13:25:44;1.50;;;1.40;;
3022;SDS011;1521;53.584;9.938;2023-04-04T13:28:10;3.87;;;1.80;;
3022;SDS011;1521;53.584;9.938;2023-04-04T13:30:36;5.40;;;1.50;;
3022;SDS011;1521;53.584;9.938;2023-04-04T13:33:03;1.67;;;1.40;;
3022;SDS011;1521;53.584;9.938;2023-04-04T13:35:30;2.37;;;1.70;;
3022;SDS011;1521;53.584;9.938;2023-04-04T13:37:55;5.13;;;1.57;;
3022;SDS011;1521;53.584;9.938;2023-04-04T13:40:21;2.93;;;1.50;;
3022;SDS011;1521;53.584;9.938;2023-04-04T13:42:47;2.07;;;1.40;;
3022;SDS011;1521;53.584;9.938;2023-04-04T13:45:14;3.97;;;1.60;;
3022;SDS011;1521;53.584;9.938;2023-04-04T13:47:40;3.53;;;2.00;;
3022;SDS011;1521;53.584;9.938;2023-04-04T13:50:06;2.83;;;1.70;;
3022;SDS011;1521;53.584;9.938;2023-04-04T13:52:32;2.13;;;1.70;;
3022;SDS011;1521;53.584;9.938;2023-04-04T13:54:58;3.03;;;1.80;;
3022;SDS011;1521;53.584;9.938;2023-04-04T13:57:23;3.50;;;1.67;;
3022;SDS011;1521;53.584;9.938;2023-04-04T13:59:49;2.67;;;1.80;;
3022;SDS011;1521;53.584;9.938;2023-04-04T14:02:14;5.10;;;2.37;;
3022;SDS011;1521;53.584;9.938;2023-04-04T14:04:40;6.00;;;1.93;;
3022;SDS011;1521;53.584;9.938;2023-04-04T14:07:05;4.40;;;1.57;;
3022;SDS011;1521;53.584;9.938;2023-04-04T14:09:31;5.73;;;1.80;;
3022;SDS011;1521;53.584;9.938;2023-04-04T14:11:57;3.43;;;1.90;;
3022;SDS011;1521;53.584;9.938;2023-04-04T14:14:22;3.73;;;2.17;;
3022;SDS011;1521;53.584;9.938;2023-04-04T14:16:48;2.33;;;1.70;;
3022;SDS011;1521;53.584;9.938;2023-04-04T14:19:13;3.10;;;1.73;;
3022;SDS011;1521;53.584;9.938;2023-04-04T14:21:39;4.97;;;2.20;;
3022;SDS011;1521;53.584;9.938;2023-04-04T14:24:05;3.40;;;2.17;;
3022;SDS011;1521;53.584;9.938;2023-04-04T14:26:30;2.83;;;1.80;;
3022;SDS011;1521;53.584;9.938;2023-04-04T14:28:56;4.83;;;2.27;;
3022;SDS011;1521;53.584;9.938;2023-04-04T14:31:22;2.27;;;1.83;;
3022;SDS011;1521;53.584;9.938;2023-04-04T14:33:47;5.60;;;2.00;;
3022;SDS011;1521;53.584;9.938;2023-04-04T14:36:13;3.77;;;1.93;;
3022;SDS011;1521;53.584;9.938;2023-04-04T14:38:39;2.43;;;2.10;;
3022;SDS011;1521;53.584;9.938;2023-04-04T14:41:05;5.10;;;2.67;;
3022;SDS011;1521;53.584;9.938;2023-04-04T14:43:30;3.57;;;2.10;;
3022;SDS011;1521;53.584;9.938;2023-04-04T14:45:56;2.93;;;2.00;;
3022;SDS011;1521;53.584;9.938;2023-04-04T14:48:21;12.23;;;2.43;;
3022;SDS011;1521;53.584;9.938;2023-04-04T14:50:47;2.97;;;2.57;;
3022;SDS011;1521;53.584;9.938;2023-04-04T14:53:12;3.33;;;2.30;;
3022;SDS011;1521;53.584;9.938;2023-04-04T14:55:38;2.30;;;2.10;;
3022;SDS011;1521;53.584;9.938;2023-04-04T14:58:04;4.73;;;2.47;;
3022;SDS011;1521;53.584;9.938;2023-04-04T15:00:29;2.63;;;2.20;;
3022;SDS011;1521;53.584;9.938;2023-04-04T15:02:55;4.90;;;2.17;;
3022;SDS011;1521;53.584;9.938;2023-04-04T15:05:21;6.90;;;2.87;;
3022;SDS011;1521;53.584;9.938;2023-04-04T15:07:48;5.23;;;2.70;;
3022;SDS011;1521;53.584;9.938;2023-04-04T15:10:14;5.60;;;2.73;;
3022;SDS011;1521;53.584;9.938;2023-04-04T15:12:40;3.40;;;2.20;;
3022;SDS011;1521;53.584;9.938;2023-04-04T15:15:06;3.47;;;2.70;;
3022;SDS011;1521;53.584;9.938;2023-04-04T15:17:32;5.13;;;2.57;;
3022;SDS011;1521;53.584;9.938;2023-04-04T15:19:57;3.50;;;2.43;;
3022;SDS011;1521;53.584;9.938;2023-04-04T15:22:23;4.40;;;2.50;;
3022;SDS011;1521;53.584;9.938;2023-04-04T15:24:49;4.13;;;2.50;;
3022;SDS011;1521;53.584;9.938;2023-04-04T15:27:15;4.27;;;2.50;;
3022;SDS011;1521;53.584;9.938;2023-04-04T15:29:41;4.37;;;2.87;;
3022;SDS011;1521;53.584;9.938;2023-04-04T15:32:08;3.80;;;2.03;;
3022;SDS011;1521;53.584;9.938;2023-04-04T15:34:34;3.07;;;2.50;;
3022;SDS011;1521;53.584;9.938;2023-04-04T15:37:00;3.40;;;2.30;;
3022;SDS011;1521;53.584;9.938;2023-04-04T15:39:28;5.13;;;2.20;;
3022;SDS011;1521;53.584;9.938;2023-04-04T15:41:58;5.43;;;2.23;;
3022;SDS011;1521;53.584;9.938;2023-04-04T15:44:23;5.10;;;1.97;;
3022;SDS011;1521;53.584;9.938;2023-04-04T15:46:49;4.60;;;2.20;;